createdAt,value
2022-08-09T00:00:49.534Z,15.8
2022-08-09T00:10:49.622Z,15.7
2022-08-09T00:20:50.641Z,15.6
2022-08-09T00:30:50.629Z,15.5
2022-08-09T00:40:52.968Z,15.4
2022-08-09T00:50:52.061Z,15.3
2022-08-09T01:00:52.321Z,15.2
2022-08-09T01:10:52.630Z,15.1
2022-08-09T01:20:53.156Z,15.2
2022-08-09T01:30:53.370Z,15.1
2022-08-09T01:41:02.898Z,15
2022-08-09T01:50:54.857Z,14.9
2022-08-09T02:00:55.184Z,14.8
2022-08-09T02:10:55.320Z,14.7
2022-08-09T02:20:55.748Z,14.6
2022-08-09T02:30:56.603Z,14.5
2022-08-09T02:50:57.901Z,14.3
2022-08-09T03:00:58.924Z,14.1
2022-08-09T03:31:04.219Z,13.9
2022-08-09T03:51:01.929Z,13.8
2022-08-09T04:01:02.160Z,13.6
2022-08-09T04:11:03.117Z,13.6
2022-08-09T04:21:03.889Z,13.7
2022-08-09T04:31:05.964Z,13.6
2022-08-09T04:41:04.620Z,13.7
2022-08-09T04:51:04.994Z,13.8
2022-08-09T05:01:16.200Z,13.9
2022-08-09T05:11:06.836Z,14.1
2022-08-09T05:21:09.680Z,14.5
2022-08-09T05:31:07.437Z,14.8
2022-08-09T05:41:06.611Z,15
2022-08-09T05:51:17.047Z,15.3
2022-08-09T06:01:08.397Z,15.7
2022-08-09T06:11:16.284Z,16.2
2022-08-09T06:21:10.261Z,16.6
2022-08-09T06:31:10.058Z,16.9
2022-08-09T06:51:11.065Z,17.5
2022-08-09T07:01:12.114Z,17.4
2022-08-09T07:11:12.918Z,18
2022-08-09T07:21:13.189Z,18.6
2022-08-09T07:31:13.648Z,18.4
2022-08-09T07:41:14.079Z,19.3
2022-08-09T07:52:02.973Z,19.4
2022-08-09T08:01:15.355Z,19.3
2022-08-09T08:12:11.892Z,20
2022-08-09T08:21:16.036Z,20.1
2022-08-09T08:31:16.737Z,20
2022-08-09T08:41:16.854Z,20.6
2022-08-09T08:51:18.161Z,21
2022-08-09T09:01:19.622Z,21.5
2022-08-09T09:11:19.322Z,21.7
2022-08-09T09:21:25.167Z,22.4
2022-08-09T09:32:02.035Z,22.4
2022-08-09T09:41:20.348Z,23.5
2022-08-09T09:51:25.848Z,23.4
2022-08-09T10:01:30.902Z,23.3
2022-08-09T10:02:01.093Z,23.2
2022-08-09T10:11:53.647Z,23.9
2022-08-09T10:21:28.833Z,24.4
2022-08-09T10:41:29.734Z,25.1
2022-08-09T11:03:02.333Z,25.1
2022-08-09T11:11:31.071Z,25.5
2022-08-09T11:21:31.125Z,25.6
2022-08-09T11:31:33.696Z,26
2022-08-09T11:41:37.769Z,26.6
2022-08-09T11:52:49.863Z,26.6
2022-08-09T12:01:37.907Z,26.6
2022-08-09T12:11:37.470Z,26
2022-08-09T12:21:38.484Z,26.7
2022-08-09T12:31:59.544Z,27.3
2022-08-09T12:41:39.437Z,27.1
2022-08-09T12:51:52.932Z,26.6
2022-08-09T13:01:38.122Z,27.3
2022-08-09T13:11:39.312Z,28
2022-08-09T13:22:35.097Z,27.4
2022-08-09T13:32:12.745Z,27.7
2022-08-09T13:41:57.071Z,28.1
2022-08-09T14:01:56.844Z,27
2022-08-09T14:11:41.198Z,27.9
2022-08-09T14:21:41.032Z,27.3
2022-08-09T14:31:50.440Z,27.9
2022-08-09T14:41:42.069Z,28.5
2022-08-09T14:51:42.057Z,28.6
2022-08-09T15:01:42.635Z,27.5
2022-08-09T15:11:46.793Z,28.5
2022-08-09T15:21:54.566Z,29
2022-08-09T15:31:44.262Z,28.9
2022-08-09T15:41:47.129Z,29.4
2022-08-09T15:52:02.589Z,28.8
2022-08-09T16:01:45.529Z,29.2
2022-08-09T16:11:50.421Z,28.9
2022-08-09T16:21:48.627Z,28.9
2022-08-09T16:32:10.786Z,28.7
2022-08-09T16:42:02.383Z,27.9
2022-08-09T16:51:53.934Z,28.5
2022-08-09T17:01:51.209Z,28.3
2022-08-09T17:11:51.659Z,28.4
2022-08-09T17:21:54.622Z,28.1
2022-08-09T17:31:49.827Z,27.2
2022-08-09T17:41:50.783Z,27.5
2022-08-09T17:51:51.689Z,27.2
2022-08-09T18:02:03.978Z,26.7
2022-08-09T18:12:06.062Z,26.7
2022-08-09T18:21:53.822Z,26.1
2022-08-09T18:41:54.740Z,25.1
2022-08-09T18:51:57.984Z,24.6
2022-08-09T19:11:56.855Z,23.7
2022-08-09T19:22:05.187Z,23.3
2022-08-09T19:31:59.820Z,22.9
2022-08-09T19:41:58.238Z,22.5
2022-08-09T19:51:58.774Z,22.2
2022-08-09T20:02:05.407Z,21.9
2022-08-09T20:12:02.375Z,21.6
2022-08-09T20:22:00.867Z,21.3
2022-08-09T20:32:31.559Z,21.1
2022-08-09T20:42:01.534Z,21.1
2022-08-09T20:52:02.373Z,21
2022-08-09T21:02:03.212Z,20.7
2022-08-09T21:22:03.991Z,20.6
2022-08-09T21:32:04.819Z,20.3
2022-08-09T21:42:10.068Z,20.1
2022-08-09T21:52:05.513Z,19.9
2022-08-09T22:02:06.307Z,19.7
2022-08-09T22:12:18.841Z,19.5
2022-08-09T22:22:07.892Z,19.3
2022-08-09T22:32:08.076Z,19
2022-08-09T22:42:16.160Z,18.8
2022-08-09T22:52:09.250Z,18.7
2022-08-09T23:02:10.232Z,18.6
2022-08-09T23:22:10.978Z,18.2
2022-08-09T23:32:11.116Z,18
2022-08-09T23:42:12.087Z,17.8
2022-08-09T23:52:12.659Z,17.7
